sensor_id;sensor_type;location;lat;lon;timestamp;pressure;altitude;pressure_sealevel;temperature;humidity
59329;BME280;45100;46.926;7.452;2023-05-27T00:00:07;95650.64;;;17.75;63.11
59329;BME280;45100;46.926;7.452;2023-05-27T00:02:33;95653.73;;;17.72;63.20
59329;BME280;45100;46.926;7.452;2023-05-27T00:05:04;95653.44;;;17.69;63.50
59329;BME280;45100;46.926;7.452;2023-05-27T00:07:34;95647.59;;;17.65;63.86
59329;BME280;45100;46.926;7.452;2023-05-27T00:10:06;95646.75;;;17.60;63.91
59329;BME280;45100;46.926;7.452;2023-05-27T00:12:36;95651.50;;;17.56;64.23
59329;BME280;45100;46.926;7.452;2023-05-27T00:15:07;95652.34;;;17.49;64.71
59329;BME280;45100;46.926;7.452;2023-05-27T00:17:41;95650.61;;;17.44;64.94
59329;BME280;45100;46.926;7.452;2023-05-27T00:22:43;95651.89;;;17.31;65.75
59329;BME280;45100;46.926;7.452;2023-05-27T00:25:14;95651.03;;;17.25;65.94
59329;BME280;45100;46.926;7.452;2023-05-27T00:27:43;95649.48;;;17.20;66.17
59329;BME280;45100;46.926;7.452;2023-05-27T00:30:15;95646.23;;;17.15;66.85
59329;BME280;45100;46.926;7.452;2023-05-27T00:32:45;95647.14;;;17.12;66.68
59329;BME280;45100;46.926;7.452;2023-05-27T00:35:16;95645.31;;;17.08;66.78
59329;BME280;45100;46.926;7.452;2023-05-27T00:40:21;95645.95;;;16.97;67.13
59329;BME280;45100;46.926;7.452;2023-05-27T00:42:50;95641.88;;;16.93;67.32
59329;BME280;45100;46.926;7.452;2023-05-27T00:45:21;95638.84;;;16.88;67.69
59329;BME280;45100;46.926;7.452;2023-05-27T00:47:51;95639.83;;;16.82;68.07
59329;BME280;45100;46.926;7.452;2023-05-27T00:50:26;95646.30;;;16.77;68.35
59329;BME280;45100;46.926;7.452;2023-05-27T00:52:56;95643.66;;;16.71;68.34
59329;BME280;45100;46.926;7.452;2023-05-27T00:55:26;95641.45;;;16.66;68.86
59329;BME280;45100;46.926;7.452;2023-05-27T00:57:55;95636.51;;;16.61;69.00
59329;BME280;45100;46.926;7.452;2023-05-27T01:00:23;95635.27;;;16.57;69.25
59329;BME280;45100;46.926;7.452;2023-05-27T01:02:54;95632.59;;;16.55;69.38
59329;BME280;45100;46.926;7.452;2023-05-27T01:05:25;95629.42;;;16.49;69.26
59329;BME280;45100;46.926;7.452;2023-05-27T01:08:03;95630.91;;;16.46;69.80
59329;BME280;45100;46.926;7.452;2023-05-27T01:10:49;95632.91;;;16.44;69.93
59329;BME280;45100;46.926;7.452;2023-05-27T01:13:06;95635.69;;;16.40;70.27
59329;BME280;45100;46.926;7.452;2023-05-27T01:18:03;95629.22;;;16.34;70.32
59329;BME280;45100;46.926;7.452;2023-05-27T01:20:30;95624.91;;;16.28;70.84
59329;BME280;45100;46.926;7.452;2023-05-27T01:23:01;95618.35;;;16.23;70.98
59329;BME280;45100;46.926;7.452;2023-05-27T01:25:31;95618.96;;;16.18;71.03
59329;BME280;45100;46.926;7.452;2023-05-27T01:28:02;95621.24;;;16.14;71.33
59329;BME280;45100;46.926;7.452;2023-05-27T01:30:33;95618.17;;;16.12;71.37
59329;BME280;45100;46.926;7.452;2023-05-27T01:33:13;95618.20;;;16.09;71.65
59329;BME280;45100;46.926;7.452;2023-05-27T01:35:54;95618.56;;;16.07;72.12
59329;BME280;45100;46.926;7.452;2023-05-27T01:38:07;95613.62;;;16.04;72.06
59329;BME280;45100;46.926;7.452;2023-05-27T01:40:37;95611.36;;;16.01;72.18
59329;BME280;45100;46.926;7.452;2023-05-27T01:43:05;95611.44;;;15.98;72.22
59329;BME280;45100;46.926;7.452;2023-05-27T01:45:36;95608.05;;;15.92;72.04
59329;BME280;45100;46.926;7.452;2023-05-27T01:48:08;95609.61;;;15.86;72.71
59329;BME280;45100;46.926;7.452;2023-05-27T01:50:37;95610.48;;;15.80;73.00
59329;BME280;45100;46.926;7.452;2023-05-27T01:53:08;95614.23;;;15.77;73.21
59329;BME280;45100;46.926;7.452;2023-05-27T01:55:39;95613.64;;;15.73;73.50
59329;BME280;45100;46.926;7.452;2023-05-27T01:58:09;95611.67;;;15.71;73.68
59329;BME280;45100;46.926;7.452;2023-05-27T02:00:40;95613.34;;;15.69;73.72
59329;BME280;45100;46.926;7.452;2023-05-27T02:03:10;95612.14;;;15.69;73.72
59329;BME280;45100;46.926;7.452;2023-05-27T02:05:43;95611.72;;;15.67;73.88
59329;BME280;45100;46.926;7.452;2023-05-27T02:08:12;95608.83;;;15.64;73.98
59329;BME280;45100;46.926;7.452;2023-05-27T02:10:42;95606.93;;;15.63;74.08
59329;BME280;45100;46.926;7.452;2023-05-27T02:13:13;95612.12;;;15.63;74.25
59329;BME280;45100;46.926;7.452;2023-05-27T02:15:44;95615.80;;;15.62;74.17
59329;BME280;45100;46.926;7.452;2023-05-27T02:18:15;95616.38;;;15.59;74.38
59329;BME280;45100;46.926;7.452;2023-05-27T02:20:45;95619.52;;;15.55;74.47
59329;BME280;45100;46.926;7.452;2023-05-27T02:23:15;95618.16;;;15.51;74.54
59329;BME280;45100;46.926;7.452;2023-05-27T02:25:45;95618.75;;;15.46;74.82
59329;BME280;45100;46.926;7.452;2023-05-27T02:28:16;95615.61;;;15.42;75.12
59329;BME280;45100;46.926;7.452;2023-05-27T02:30:47;95613.52;;;15.40;75.22
59329;BME280;45100;46.926;7.452;2023-05-27T02:33:17;95613.26;;;15.38;75.31
59329;BME280;45100;46.926;7.452;2023-05-27T02:35:48;95614.62;;;15.35;75.27
59329;BME280;45100;46.926;7.452;2023-05-27T02:38:19;95615.61;;;15.31;75.49
59329;BME280;45100;46.926;7.452;2023-05-27T02:40:49;95615.20;;;15.29;75.75
59329;BME280;45100;46.926;7.452;2023-05-27T02:43:20;95615.47;;;15.28;75.72
59329;BME280;45100;46.926;7.452;2023-05-27T02:45:51;95612.87;;;15.26;76.04
59329;BME280;45100;46.926;7.452;2023-05-27T02:48:21;95611.61;;;15.25;76.04
59329;BME280;45100;46.926;7.452;2023-05-27T02:50:52;95607.45;;;15.21;76.10
59329;BME280;45100;46.926;7.452;2023-05-27T02:53:23;95608.44;;;15.18;76.26
59329;BME280;45100;46.926;7.452;2023-05-27T02:55:53;95606.95;;;15.14;76.36
59329;BME280;45100;46.926;7.452;2023-05-27T02:58:24;95605.48;;;15.10;76.53
59329;BME280;45100;46.926;7.452;2023-05-27T03:00:55;95608.20;;;15.06;76.85
59329;BME280;45100;46.926;7.452;2023-05-27T03:03:26;95605.12;;;15.03;76.71
59329;BME280;45100;46.926;7.452;2023-05-27T03:05:56;95603.53;;;14.99;77.01
59329;BME280;45100;46.926;7.452;2023-05-27T03:08:27;95608.48;;;14.93;77.50
59329;BME280;45100;46.926;7.452;2023-05-27T03:10:58;95608.10;;;14.89;77.64
59329;BME280;45100;46.926;7.452;2023-05-27T03:13:28;95607.90;;;14.87;77.84
59329;BME280;45100;46.926;7.452;2023-05-27T03:15:59;95612.98;;;14.83;78.16
59329;BME280;45100;46.926;7.452;2023-05-27T03:21:03;95613.41;;;14.75;78.46
59329;BME280;45100;46.926;7.452;2023-05-27T03:23:33;95614.58;;;14.70;79.03
59329;BME280;45100;46.926;7.452;2023-05-27T03:26:04;95618.08;;;14.69;79.26
59329;BME280;45100;46.926;7.452;2023-05-27T03:28:33;95612.36;;;14.68;79.03
59329;BME280;45100;46.926;7.452;2023-05-27T03:31:05;95611.69;;;14.66;78.91
59329;BME280;45100;46.926;7.452;2023-05-27T03:33:35;95611.44;;;14.63;78.92
59329;BME280;45100;46.926;7.452;2023-05-27T03:36:05;95614.55;;;14.62;79.08
59329;BME280;45100;46.926;7.452;2023-05-27T03:38:35;95614.55;;;14.59;79.17
59329;BME280;45100;46.926;7.452;2023-05-27T03:41:05;95618.23;;;14.56;79.59
59329;BME280;45100;46.926;7.452;2023-05-27T03:43:36;95617.38;;;14.57;79.89
59329;BME280;45100;46.926;7.452;2023-05-27T03:46:08;95611.96;;;14.60;79.38
59329;BME280;45100;46.926;7.452;2023-05-27T03:48:37;95613.55;;;14.60;79.02
59329;BME280;45100;46.926;7.452;2023-05-27T03:51:08;95617.09;;;14.59;79.27
59329;BME280;45100;46.926;7.452;2023-05-27T03:53:40;95614.50;;;14.58;79.30
59329;BME280;45100;46.926;7.452;2023-05-27T03:56:10;95616.42;;;14.57;79.41
59329;BME280;45100;46.926;7.452;2023-05-27T03:58:41;95612.97;;;14.58;79.41
59329;BME280;45100;46.926;7.452;2023-05-27T04:01:12;95609.95;;;14.59;79.38
59329;BME280;45100;46.926;7.452;2023-05-27T04:03:42;95611.02;;;14.61;79.21
59329;BME280;45100;46.926;7.452;2023-05-27T04:06:12;95619.73;;;14.70;79.48
59329;BME280;45100;46.926;7.452;2023-05-27T04:08:42;95619.96;;;14.89;79.18
59329;BME280;45100;46.926;7.452;2023-05-27T04:11:13;95619.89;;;15.20;77.37
59329;BME280;45100;46.926;7.452;2023-05-27T04:13:43;95618.90;;;15.57;76.37
59329;BME280;45100;46.926;7.452;2023-05-27T04:16:14;95622.80;;;15.98;74.28
59329;BME280;45100;46.926;7.452;2023-05-27T04:18:51;95623.46;;;16.40;72.58
59329;BME280;45100;46.926;7.452;2023-05-27T04:21:15;95617.77;;;16.80;70.75
59329;BME280;45100;46.926;7.452;2023-05-27T04:23:46;95619.27;;;17.20;69.08
59329;BME280;45100;46.926;7.452;2023-05-27T04:26:16;95619.11;;;17.58;67.38
59329;BME280;45100;46.926;7.452;2023-05-27T04:28:47;95621.50;;;17.97;66.08
59329;BME280;45100;46.926;7.452;2023-05-27T04:31:18;95618.86;;;18.38;64.89
59329;BME280;45100;46.926;7.452;2023-05-27T04:33:48;95614.41;;;18.80;63.14
59329;BME280;45100;46.926;7.452;2023-05-27T04:36:18;95615.72;;;19.21;61.16
59329;BME280;45100;46.926;7.452;2023-05-27T04:38:48;95618.14;;;19.55;59.87
59329;BME280;45100;46.926;7.452;2023-05-27T04:41:22;95613.17;;;19.87;58.37
59329;BME280;45100;46.926;7.452;2023-05-27T04:43:49;95615.59;;;20.20;56.71
59329;BME280;45100;46.926;7.452;2023-05-27T04:46:21;95613.39;;;20.55;55.57
59329;BME280;45100;46.926;7.452;2023-05-27T04:48:52;95612.80;;;20.87;54.38
59329;BME280;45100;46.926;7.452;2023-05-27T04:51:21;95612.58;;;21.15;53.24
59329;BME280;45100;46.926;7.452;2023-05-27T04:53:52;95608.82;;;21.39;52.25
59329;BME280;45100;46.926;7.452;2023-05-27T04:56:22;95611.81;;;21.61;51.65
59329;BME280;45100;46.926;7.452;2023-05-27T05:01:30;95606.45;;;22.08;50.76
59329;BME280;45100;46.926;7.452;2023-05-27T05:04:14;95606.02;;;22.31;49.59
59329;BME280;45100;46.926;7.452;2023-05-27T05:06:27;95604.59;;;22.47;48.99
59329;BME280;45100;46.926;7.452;2023-05-27T05:08:56;95601.28;;;22.60;48.78
59329;BME280;45100;46.926;7.452;2023-05-27T05:11:27;95602.66;;;22.74;47.96
59329;BME280;45100;46.926;7.452;2023-05-27T05:13:57;95598.89;;;22.79;47.57
59329;BME280;45100;46.926;7.452;2023-05-27T05:16:27;95601.08;;;22.75;47.17
59329;BME280;45100;46.926;7.452;2023-05-27T05:18:58;95601.77;;;22.67;47.39
59329;BME280;45100;46.926;7.452;2023-05-27T05:21:29;95603.94;;;22.58;47.79
59329;BME280;45100;46.926;7.452;2023-05-27T05:24:00;95601.41;;;22.59;48.03
59329;BME280;45100;46.926;7.452;2023-05-27T05:26:30;95603.50;;;22.66;47.55
59329;BME280;45100;46.926;7.452;2023-05-27T05:29:01;95605.00;;;22.67;47.67
59329;BME280;45100;46.926;7.452;2023-05-27T05:31:32;95611.12;;;22.57;47.47
59329;BME280;45100;46.926;7.452;2023-05-27T05:34:02;95609.17;;;22.10;48.07
59329;BME280;45100;46.926;7.452;2023-05-27T05:36:33;95606.56;;;21.55;49.56
59329;BME280;45100;46.926;7.452;2023-05-27T05:39:04;95612.02;;;20.96;50.86
59329;BME280;45100;46.926;7.452;2023-05-27T05:41:35;95612.14;;;20.33;52.68
59329;BME280;45100;46.926;7.452;2023-05-27T05:44:07;95615.83;;;19.76;54.79
59329;BME280;45100;46.926;7.452;2023-05-27T05:46:37;95614.22;;;19.25;56.39
59329;BME280;45100;46.926;7.452;2023-05-27T05:49:07;95607.36;;;18.77;58.33
59329;BME280;45100;46.926;7.452;2023-05-27T05:51:36;95614.95;;;18.45;59.51
59329;BME280;45100;46.926;7.452;2023-05-27T05:54:07;95618.16;;;18.18;60.86
59329;BME280;45100;46.926;7.452;2023-05-27T05:56:38;95620.56;;;17.91;61.82
59329;BME280;45100;46.926;7.452;2023-05-27T05:59:09;95620.44;;;17.73;63.20
59329;BME280;45100;46.926;7.452;2023-05-27T06:01:39;95622.11;;;17.68;63.58
59329;BME280;45100;46.926;7.452;2023-05-27T06:04:10;95617.38;;;17.70;64.07
59329;BME280;45100;46.926;7.452;2023-05-27T06:06:41;95612.82;;;17.74;63.82
59329;BME280;45100;46.926;7.452;2023-05-27T06:09:11;95614.40;;;17.80;64.08
59329;BME280;45100;46.926;7.452;2023-05-27T06:11:42;95614.33;;;17.86;63.82
59329;BME280;45100;46.926;7.452;2023-05-27T06:14:13;95611.55;;;17.89;63.54
59329;BME280;45100;46.926;7.452;2023-05-27T06:16:44;95610.20;;;17.90;64.12
59329;BME280;45100;46.926;7.452;2023-05-27T06:19:15;95607.99;;;17.94;63.37
59329;BME280;45100;46.926;7.452;2023-05-27T06:21:45;95611.05;;;17.99;63.88
59329;BME280;45100;46.926;7.452;2023-05-27T06:24:16;95614.85;;;17.98;62.93
59329;BME280;45100;46.926;7.452;2023-05-27T06:26:45;95610.08;;;17.89;63.47
59329;BME280;45100;46.926;7.452;2023-05-27T06:29:16;95612.20;;;17.87;63.28
59329;BME280;45100;46.926;7.452;2023-05-27T06:31:49;95609.83;;;17.80;64.04
59329;BME280;45100;46.926;7.452;2023-05-27T06:34:16;95613.50;;;17.84;64.14
59329;BME280;45100;46.926;7.452;2023-05-27T06:39:23;95608.69;;;18.08;63.22
59329;BME280;45100;46.926;7.452;2023-05-27T06:41:52;95599.12;;;18.22;63.35
59329;BME280;45100;46.926;7.452;2023-05-27T06:44:22;95603.34;;;18.34;62.08
59329;BME280;45100;46.926;7.452;2023-05-27T06:46:53;95602.05;;;18.32;62.09
59329;BME280;45100;46.926;7.452;2023-05-27T06:49:24;95597.18;;;18.31;62.52
59329;BME280;45100;46.926;7.452;2023-05-27T06:51:55;95595.66;;;18.34;62.60
59329;BME280;45100;46.926;7.452;2023-05-27T06:54:25;95600.97;;;18.39;62.28
59329;BME280;45100;46.926;7.452;2023-05-27T06:56:56;95594.04;;;18.41;62.58
59329;BME280;45100;46.926;7.452;2023-05-27T06:59:27;95597.76;;;18.44;62.40
59329;BME280;45100;46.926;7.452;2023-05-27T07:01:59;95594.82;;;18.48;62.56
59329;BME280;45100;46.926;7.452;2023-05-27T07:04:28;95594.39;;;18.51;62.08
59329;BME280;45100;46.926;7.452;2023-05-27T07:06:58;95591.50;;;18.53;62.47
59329;BME280;45100;46.926;7.452;2023-05-27T07:09:29;95591.62;;;18.63;62.87
59329;BME280;45100;46.926;7.452;2023-05-27T07:12:03;95591.28;;;18.79;62.40
59329;BME280;45100;46.926;7.452;2023-05-27T07:14:30;95591.88;;;18.96;61.21
59329;BME280;45100;46.926;7.452;2023-05-27T07:17:02;95591.86;;;19.08;60.81
59329;BME280;45100;46.926;7.452;2023-05-27T07:19:32;95589.66;;;19.18;60.94
59329;BME280;45100;46.926;7.452;2023-05-27T07:22:03;95589.16;;;19.29;60.08
59329;BME280;45100;46.926;7.452;2023-05-27T07:24:33;95590.93;;;19.40;60.38
59329;BME280;45100;46.926;7.452;2023-05-27T07:27:04;95587.45;;;19.52;59.50
59329;BME280;45100;46.926;7.452;2023-05-27T07:29:34;95583.88;;;19.63;59.26
59329;BME280;45100;46.926;7.452;2023-05-27T07:32:05;95582.98;;;19.76;59.33
59329;BME280;45100;46.926;7.452;2023-05-27T07:34:35;95579.81;;;19.93;58.04
59329;BME280;45100;46.926;7.452;2023-05-27T07:37:06;95580.83;;;19.96;57.60
59329;BME280;45100;46.926;7.452;2023-05-27T07:39:35;95578.27;;;19.92;57.78
59329;BME280;45100;46.926;7.452;2023-05-27T07:42:07;95575.60;;;19.94;57.47
59329;BME280;45100;46.926;7.452;2023-05-27T07:44:36;95569.79;;;19.96;57.37
59329;BME280;45100;46.926;7.452;2023-05-27T07:47:07;95571.58;;;20.00;57.25
59329;BME280;45100;46.926;7.452;2023-05-27T07:49:38;95568.63;;;20.07;57.53
59329;BME280;45100;46.926;7.452;2023-05-27T07:52:09;95567.75;;;20.12;56.40
59329;BME280;45100;46.926;7.452;2023-05-27T07:54:39;95562.84;;;20.08;56.70
59329;BME280;45100;46.926;7.452;2023-05-27T07:57:10;95566.02;;;20.04;56.72
59329;BME280;45100;46.926;7.452;2023-05-27T07:59:41;95561.53;;;20.08;57.24
59329;BME280;45100;46.926;7.452;2023-05-27T08:02:11;95565.02;;;20.11;56.34
59329;BME280;45100;46.926;7.452;2023-05-27T08:04:45;95564.00;;;20.03;56.66
59329;BME280;45100;46.926;7.452;2023-05-27T08:07:13;95562.63;;;20.04;57.38
59329;BME280;45100;46.926;7.452;2023-05-27T08:09:44;95560.22;;;20.16;56.94
59329;BME280;45100;46.926;7.452;2023-05-27T08:12:14;95556.76;;;20.21;56.24
59329;BME280;45100;46.926;7.452;2023-05-27T08:14:45;95555.75;;;20.23;56.46
59329;BME280;45100;46.926;7.452;2023-05-27T08:17:16;95552.14;;;20.21;55.94
59329;BME280;45100;46.926;7.452;2023-05-27T08:19:46;95548.55;;;20.19;56.99
59329;BME280;45100;46.926;7.452;2023-05-27T08:22:16;95549.20;;;20.28;56.29
59329;BME280;45100;46.926;7.452;2023-05-27T08:24:46;95554.51;;;20.38;56.04
59329;BME280;45100;46.926;7.452;2023-05-27T08:27:17;95549.70;;;20.42;55.47
59329;BME280;45100;46.926;7.452;2023-05-27T08:29:48;95550.92;;;20.49;55.62
59329;BME280;45100;46.926;7.452;2023-05-27T08:32:19;95556.52;;;20.54;54.97
59329;BME280;45100;46.926;7.452;2023-05-27T08:34:51;95550.18;;;20.47;55.17
59329;BME280;45100;46.926;7.452;2023-05-27T08:37:22;95547.30;;;20.44;55.64
59329;BME280;45100;46.926;7.452;2023-05-27T08:39:52;95542.01;;;20.50;55.87
59329;BME280;45100;46.926;7.452;2023-05-27T08:42:22;95544.54;;;20.59;55.49
59329;BME280;45100;46.926;7.452;2023-05-27T08:44:54;95542.70;;;20.61;55.07
59329;BME280;45100;46.926;7.452;2023-05-27T08:47:25;95542.55;;;20.61;55.38
59329;BME280;45100;46.926;7.452;2023-05-27T08:49:54;95532.37;;;20.61;55.24
59329;BME280;45100;46.926;7.452;2023-05-27T08:52:27;95532.15;;;20.61;54.99
59329;BME280;45100;46.926;7.452;2023-05-27T08:54:58;95532.17;;;20.59;55.80
59329;BME280;45100;46.926;7.452;2023-05-27T08:57:29;95519.75;;;20.64;55.42
59329;BME280;45100;46.926;7.452;2023-05-27T08:59:56;95515.55;;;20.77;55.67
59329;BME280;45100;46.926;7.452;2023-05-27T09:02:27;95522.03;;;20.93;54.96
59329;BME280;45100;46.926;7.452;2023-05-27T09:04:57;95520.84;;;21.07;54.17
59329;BME280;45100;46.926;7.452;2023-05-27T09:07:27;95519.06;;;21.11;54.11
59329;BME280;45100;46.926;7.452;2023-05-27T09:09:58;95515.34;;;21.05;53.98
59329;BME280;45100;46.926;7.452;2023-05-27T09:12:28;95516.39;;;21.05;53.98
59329;BME280;45100;46.926;7.452;2023-05-27T09:14:59;95513.34;;;21.07;55.13
59329;BME280;45100;46.926;7.452;2023-05-27T09:17:30;95511.34;;;21.10;54.02
59329;BME280;45100;46.926;7.452;2023-05-27T09:19:59;95509.64;;;21.17;54.58
59329;BME280;45100;46.926;7.452;2023-05-27T09:22:31;95500.77;;;21.32;53.93
59329;BME280;45100;46.926;7.452;2023-05-27T09:25:01;95497.23;;;21.46;53.63
59329;BME280;45100;46.926;7.452;2023-05-27T09:27:32;95497.85;;;21.57;53.15
59329;BME280;45100;46.926;7.452;2023-05-27T09:30:09;95490.52;;;21.63;53.52
59329;BME280;45100;46.926;7.452;2023-05-27T09:32:33;95494.91;;;21.74;52.57
59329;BME280;45100;46.926;7.452;2023-05-27T09:35:05;95489.09;;;21.83;52.42
59329;BME280;45100;46.926;7.452;2023-05-27T09:37:35;95486.88;;;21.88;52.19
59329;BME280;45100;46.926;7.452;2023-05-27T09:40:06;95491.44;;;21.93;52.39
59329;BME280;45100;46.926;7.452;2023-05-27T09:42:48;95489.75;;;21.95;52.46
59329;BME280;45100;46.926;7.452;2023-05-27T09:45:07;95489.16;;;21.97;52.20
59329;BME280;45100;46.926;7.452;2023-05-27T09:47:35;95483.84;;;21.99;52.35
59329;BME280;45100;46.926;7.452;2023-05-27T09:50:07;95487.22;;;22.06;52.22
59329;BME280;45100;46.926;7.452;2023-05-27T09:52:38;95486.84;;;22.11;51.81
59329;BME280;45100;46.926;7.452;2023-05-27T09:55:08;95484.60;;;22.19;51.82
59329;BME280;45100;46.926;7.452;2023-05-27T09:57:37;95479.62;;;22.30;51.58
59329;BME280;45100;46.926;7.452;2023-05-27T10:00:12;95481.66;;;22.40;50.94
59329;BME280;45100;46.926;7.452;2023-05-27T10:02:39;95476.00;;;22.44;51.36
59329;BME280;45100;46.926;7.452;2023-05-27T10:05:10;95471.89;;;22.51;51.39
59329;BME280;45100;46.926;7.452;2023-05-27T10:07:40;95478.62;;;22.58;50.31
59329;BME280;45100;46.926;7.452;2023-05-27T10:10:10;95475.74;;;22.57;50.28
59329;BME280;45100;46.926;7.452;2023-05-27T10:12:40;95475.50;;;22.48;50.83
59329;BME280;45100;46.926;7.452;2023-05-27T10:15:20;95470.22;;;22.38;51.56
59329;BME280;45100;46.926;7.452;2023-05-27T10:17:47;95468.98;;;22.44;52.45
59329;BME280;45100;46.926;7.452;2023-05-27T10:20:11;95469.53;;;22.57;51.65
59329;BME280;45100;46.926;7.452;2023-05-27T10:22:45;95466.72;;;22.70;51.16
59329;BME280;45100;46.926;7.452;2023-05-27T10:25:13;95462.20;;;22.84;51.54
59329;BME280;45100;46.926;7.452;2023-05-27T10:27:47;95467.91;;;23.03;50.74
59329;BME280;45100;46.926;7.452;2023-05-27T10:30:15;95459.00;;;23.13;49.56
59329;BME280;45100;46.926;7.452;2023-05-27T10:32:50;95457.23;;;23.11;49.85
59329;BME280;45100;46.926;7.452;2023-05-27T10:35:15;95461.69;;;23.08;50.24
59329;BME280;45100;46.926;7.452;2023-05-27T10:37:48;95459.77;;;23.11;50.12
59329;BME280;45100;46.926;7.452;2023-05-27T10:40:24;95454.44;;;23.16;50.07
59329;BME280;45100;46.926;7.452;2023-05-27T10:42:46;95445.58;;;23.17;50.05
59329;BME280;45100;46.926;7.452;2023-05-27T10:45:17;95448.00;;;23.14;50.53
59329;BME280;45100;46.926;7.452;2023-05-27T10:47:47;95441.80;;;23.19;49.32
59329;BME280;45100;46.926;7.452;2023-05-27T10:50:18;95445.98;;;23.21;49.64
59329;BME280;45100;46.926;7.452;2023-05-27T10:52:49;95438.72;;;23.25;49.62
59329;BME280;45100;46.926;7.452;2023-05-27T10:57:52;95435.34;;;23.48;49.19
59329;BME280;45100;46.926;7.452;2023-05-27T11:00:26;95438.14;;;23.60;49.12
59329;BME280;45100;46.926;7.452;2023-05-27T11:02:54;95426.41;;;23.71;48.16
59329;BME280;45100;46.926;7.452;2023-05-27T11:05:28;95426.94;;;23.79;48.55
59329;BME280;45100;46.926;7.452;2023-05-27T11:07:54;95423.92;;;23.79;47.67
59329;BME280;45100;46.926;7.452;2023-05-27T11:10:25;95424.73;;;23.78;47.42
59329;BME280;45100;46.926;7.452;2023-05-27T11:12:55;95424.91;;;23.77;48.18
59329;BME280;45100;46.926;7.452;2023-05-27T11:15:25;95420.41;;;23.74;47.70
59329;BME280;45100;46.926;7.452;2023-05-27T11:18:00;95422.77;;;23.79;47.42
59329;BME280;45100;46.926;7.452;2023-05-27T11:20:37;95414.84;;;23.89;46.63
59329;BME280;45100;46.926;7.452;2023-05-27T11:22:56;95415.39;;;24.01;46.83
59329;BME280;45100;46.926;7.452;2023-05-27T11:25:27;95402.86;;;24.00;47.27
59329;BME280;45100;46.926;7.452;2023-05-27T11:27:58;95411.67;;;23.98;46.46
59329;BME280;45100;46.926;7.452;2023-05-27T11:33:02;95408.47;;;24.01;45.97
59329;BME280;45100;46.926;7.452;2023-05-27T11:35:33;95408.85;;;24.12;45.65
59329;BME280;45100;46.926;7.452;2023-05-27T11:38:02;95409.06;;;24.22;44.86
59329;BME280;45100;46.926;7.452;2023-05-27T11:40:35;95406.60;;;24.28;44.37
59329;BME280;45100;46.926;7.452;2023-05-27T11:43:02;95403.33;;;24.34;44.45
59329;BME280;45100;46.926;7.452;2023-05-27T11:45:35;95400.48;;;24.49;43.59
59329;BME280;45100;46.926;7.452;2023-05-27T11:48:03;95393.46;;;24.62;42.96
59329;BME280;45100;46.926;7.452;2023-05-27T11:50:34;95393.30;;;24.70;42.84
59329;BME280;45100;46.926;7.452;2023-05-27T11:53:04;95393.66;;;24.73;42.96
59329;BME280;45100;46.926;7.452;2023-05-27T11:55:34;95383.04;;;24.64;42.00
59329;BME280;45100;46.926;7.452;2023-05-27T11:58:05;95390.91;;;24.64;42.71
59329;BME280;45100;46.926;7.452;2023-05-27T12:00:36;95382.05;;;24.64;42.99
59329;BME280;45100;46.926;7.452;2023-05-27T12:03:07;95389.53;;;24.63;43.08
59329;BME280;45100;46.926;7.452;2023-05-27T12:05:37;95385.89;;;24.60;42.44
59329;BME280;45100;46.926;7.452;2023-05-27T12:08:08;95381.28;;;24.55;42.94
59329;BME280;45100;46.926;7.452;2023-05-27T12:10:39;95376.48;;;24.56;42.68
59329;BME280;45100;46.926;7.452;2023-05-27T12:13:09;95376.59;;;24.62;42.00
59329;BME280;45100;46.926;7.452;2023-05-27T12:15:40;95377.48;;;24.72;42.45
59329;BME280;45100;46.926;7.452;2023-05-27T12:18:11;95379.14;;;24.87;42.43
59329;BME280;45100;46.926;7.452;2023-05-27T12:20:43;95371.23;;;24.87;41.99
59329;BME280;45100;46.926;7.452;2023-05-27T12:23:13;95369.63;;;24.81;43.06
59329;BME280;45100;46.926;7.452;2023-05-27T12:25:43;95365.97;;;24.84;42.23
59329;BME280;45100;46.926;7.452;2023-05-27T12:28:14;95367.71;;;24.91;42.10
59329;BME280;45100;46.926;7.452;2023-05-27T12:30:47;95364.48;;;24.99;41.95
59329;BME280;45100;46.926;7.452;2023-05-27T12:33:16;95369.47;;;25.08;43.05
59329;BME280;45100;46.926;7.452;2023-05-27T12:35:46;95361.30;;;25.15;43.15
59329;BME280;45100;46.926;7.452;2023-05-27T12:38:16;95355.55;;;25.14;43.31
59329;BME280;45100;46.926;7.452;2023-05-27T12:40:46;95353.46;;;25.13;42.61
59329;BME280;45100;46.926;7.452;2023-05-27T12:43:19;95350.47;;;25.14;41.97
59329;BME280;45100;46.926;7.452;2023-05-27T12:45:47;95348.45;;;25.10;42.62
59329;BME280;45100;46.926;7.452;2023-05-27T12:48:18;95349.27;;;25.07;42.28
59329;BME280;45100;46.926;7.452;2023-05-27T12:50:49;95343.34;;;25.09;41.97
59329;BME280;45100;46.926;7.452;2023-05-27T12:53:20;95337.43;;;25.10;42.85
59329;BME280;45100;46.926;7.452;2023-05-27T12:55:53;95335.08;;;25.08;43.11
59329;BME280;45100;46.926;7.452;2023-05-27T12:58:24;95333.73;;;25.15;43.37
59329;BME280;45100;46.926;7.452;2023-05-27T13:00:55;95338.89;;;25.21;43.10
59329;BME280;45100;46.926;7.452;2023-05-27T13:03:25;95339.82;;;25.26;42.12
59329;BME280;45100;46.926;7.452;2023-05-27T13:05:56;95327.81;;;25.27;42.51
59329;BME280;45100;46.926;7.452;2023-05-27T13:08:27;95323.20;;;25.34;41.59
59329;BME280;45100;46.926;7.452;2023-05-27T13:10:58;95321.85;;;25.35;40.93
59329;BME280;45100;46.926;7.452;2023-05-27T13:13:29;95329.12;;;25.32;41.73
59329;BME280;45100;46.926;7.452;2023-05-27T13:15:59;95333.48;;;25.35;42.44
59329;BME280;45100;46.926;7.452;2023-05-27T13:18:30;95331.11;;;25.41;41.93
59329;BME280;45100;46.926;7.452;2023-05-27T13:21:01;95323.00;;;25.41;41.67
59329;BME280;45100;46.926;7.452;2023-05-27T13:23:31;95320.12;;;25.37;40.96
59329;BME280;45100;46.926;7.452;2023-05-27T13:26:01;95319.39;;;25.34;41.01
59329;BME280;45100;46.926;7.452;2023-05-27T13:28:31;95311.79;;;25.29;40.91
59329;BME280;45100;46.926;7.452;2023-05-27T13:31:04;95313.17;;;25.23;39.97
59329;BME280;45100;46.926;7.452;2023-05-27T13:33:33;95328.27;;;25.20;39.75
59329;BME280;45100;46.926;7.452;2023-05-27T13:36:03;95324.14;;;25.19;39.87